Wednesday, September 19, 2018, 2:41 PM EDT
Back to Local

KSBY, Salisbury-wicomico Cty Reg

Location: Salisbury, MD, United States Lat: 38.333
Local Time: 2:41 PM EDT (18:41 GMT) Lon: -75.5
Time Zone: US/Eastern Elev: 52 ft

Show me the last for .
Show Decoded

2018-09-19 13:54 METAR KSBY 191754Z 36010KT 10SM CLR 29/20 A2990 RMK AO2 SLP127 T02890200 10289
                 20217 53001 =
2018-09-19 12:54 METAR KSBY 191654Z 36012G15KT 10SM FEW033 28/21 A2990 RMK AO2 SLP127 T02830206 =
2018-09-19 11:54 METAR KSBY 191554Z 34010G17KT 10SM CLR 27/21 A2989 RMK AO2 SLP125 T02720211 =
2018-09-19 10:54 METAR KSBY 191454Z 35009KT 10SM CLR 26/21 A2990 RMK AO2 SLP126 T02610211 51014 =
2018-09-19 09:54 METAR KSBY 191354Z 33007KT 10SM CLR 25/21 A2989 RMK AO2 SLP124 T02500211 =
2018-09-19 08:54 METAR KSBY 191254Z 33009KT 10SM CLR 23/21 A2987 RMK AO2 SLP117 T02330211 =
2018-09-19 07:54 METAR KSBY 191154Z 33005KT 10SM CLR 22/21 A2986 RMK AO2 SLP113 70042 T02170211
                 10217 20194 53013 =
2018-09-19 06:54 METAR KSBY 191054Z 33006KT 10SM CLR 20/20 A2984 RMK AO2 SLP107 T02000200 =
2018-09-19 05:54 METAR KSBY 190954Z AUTO 31005KT 10SM CLR 20/20 A2983 RMK AO2 SLP102 T02000200 $
                 =
2018-09-19 04:54 METAR KSBY 190854Z AUTO 00000KT 10SM CLR 21/21 A2982 RMK AO2 SLP100 T02060206
                 50006 $ =
2018-09-19 03:54 METAR KSBY 190754Z AUTO 31005KT 10SM CLR 21/21 A2982 RMK AO2 SLP101 T02060206 $
                 =
2018-09-19 02:54 METAR KSBY 190654Z AUTO 31005KT 10SM CLR 21/21 A2981 RMK AO2 SLP097 T02110211 $
                 =
2018-09-19 01:54 METAR KSBY 190554Z AUTO 32004KT 10SM CLR 21/21 A2980 RMK AO2 SLP093 60000
                 T02110211 10233 20211 51001 $ =
2018-09-19 00:54 METAR KSBY 190454Z AUTO 34005KT 10SM FEW070 22/22 A2980 RMK AO2 SLP093 T02170217
                 403060217 $ =
2018-09-18 23:54 METAR KSBY 190354Z AUTO 33005KT 10SM OVC110 23/22 A2981 RMK AO2 SLP095 T02280222
                 $ =
2018-09-18 22:54 METAR KSBY 190254Z AUTO 34006KT 10SM SCT110 23/22 A2980 RMK AO2 SLP093 60000
                 T02280222 53009 $ =
2018-09-18 21:54 METAR KSBY 190154Z 33006KT 10SM CLR 23/23 A2979 RMK AO2 SLP089 T02330228 $ =
2018-09-18 20:54 METAR KSBY 190054Z 32005KT 10SM BKN070 OVC090 23/23 A2978 RMK AO2 RAE13 SLP087
                 P0000 T02330233 $ =
2018-09-18 19:54 METAR KSBY 182354Z 01008KT 3SM +RA BR FEW034 OVC049 23/23 A2977 RMK AO2 LTG DSNT
                 SE SLP084 P0009 60042 T02330233 10306 20233 53017 $ =
2018-09-18 19:36 METAR KSBY 182336Z 35011G17KT 9SM -RA FEW007 BKN034 OVC045 23/23 A2977 RMK AO2
                 LTG DSNT SE P0005 T02330228 $ =
2018-09-18 19:01 METAR KSBY 182301Z 33007KT 3SM -RA BR BKN007 OVC015 24/24 A2976 RMK AO2 LTG DSNT
                 S P0001 T02390239 $ =
2018-09-18 18:54 METAR KSBY 182254Z VRB03KT 1 1/4SM +RA BR BKN007 BKN013 OVC049 24/24 A2976 RMK
                 AO2 VIS 3/4V3 LTG DSNT NE RAB33 SLP080 TS N P0033 T02390239 $ =
2018-09-18 18:50 METAR KSBY 182250Z 32004KT 1 1/4SM +RA BR SCT007 BKN013 OVC049 24/24 A2976 RMK
                 AO2 VIS 3/4V3 LTG DSNT NE RAB33 TS N P0030 $ =
2018-09-18 18:45 METAR KSBY 182245Z 35007KT 3/4SM VCTS +RA BR SCT009 BKN017 OVC044 24/24 A2975
                 RMK AO2 VIS 1/2V2 LTG DSNT NE AND SE RAB33 TS N P0026 T02390239 $ =
2018-09-18 18:38 METAR KSBY 182238Z 01009G23KT 3/4SM VCTS +RA BR FEW011 BKN018 OVC060 24/24 A2975
                 RMK AO2 VIS 1/2V5 LTG DSNT NE AND SE RAB33 TS N P0015 T02390239 =
2018-09-18 18:35 METAR KSBY 182235Z 35012G23KT 1 3/4SM VCTS +RA BR FEW011 BKN044 OVC070 25/24
                 A2975 RMK AO2 VIS 1/2V5 LTG DSNT NE AND SE RAB33 TS N P0007 T02500239 =
2018-09-18 18:20 METAR KSBY 182220Z 28010G17KT 10SM VCTS SCT019 BKN070 26/23 A2974 RMK AO2 LTG
                 DSNT NE T02610233 =
2018-09-18 17:54 METAR KSBY 182154Z 25007KT 10SM FEW037 BKN065 27/23 A2972 RMK AO2 LTG DSNT N AND
                 NE SLP067 T02720233 =
2018-09-18 16:54 METAR KSBY 182054Z 26008KT 10SM OVC060 28/23 A2972 RMK AO2 LTG DSNT NW SLP066
                 T02780228 55009 =
2018-09-18 15:54 METAR KSBY 181954Z 25009KT 10SM FEW031 FEW055 29/23 A2972 RMK AO2 SLP064
                 T02890228 =
2018-09-18 14:54 METAR KSBY 181854Z 23011G21KT 10SM CLR 30/22 A2973 RMK AO2 LTG DSNT NE SLP068
                 T03000222 =

Support USWX by starting your Amazon purchase here.